sensor_id;sensor_type;location;lat;lon;timestamp;temperature;humidity
46117;DHT22;32591;48.102;11.772;2023-01-15T00:01:40;7.70;96.60
46117;DHT22;32591;48.102;11.772;2023-01-15T00:04:07;7.70;96.30
46117;DHT22;32591;48.102;11.772;2023-01-15T00:06:35;7.70;96.30
46117;DHT22;32591;48.102;11.772;2023-01-15T00:09:04;7.70;97.10
46117;DHT22;32591;48.102;11.772;2023-01-15T00:11:31;7.70;97.00
46117;DHT22;32591;48.102;11.772;2023-01-15T00:13:58;7.70;97.40
46117;DHT22;32591;48.102;11.772;2023-01-15T00:16:25;7.60;98.30
46117;DHT22;32591;48.102;11.772;2023-01-15T00:18:53;7.60;98.90
46117;DHT22;32591;48.102;11.772;2023-01-15T00:21:21;7.70;99.70
46117;DHT22;32591;48.102;11.772;2023-01-15T00:23:49;7.70;99.90
46117;DHT22;32591;48.102;11.772;2023-01-15T00:26:35;7.60;99.90
46117;DHT22;32591;48.102;11.772;2023-01-15T00:29:20;7.20;99.90
46117;DHT22;32591;48.102;11.772;2023-01-15T00:31:51;7.30;99.90
46117;DHT22;32591;48.102;11.772;2023-01-15T00:34:20;7.30;99.90
46117;DHT22;32591;48.102;11.772;2023-01-15T00:36:47;7.20;99.90
46117;DHT22;32591;48.102;11.772;2023-01-15T00:39:14;7.20;99.90
46117;DHT22;32591;48.102;11.772;2023-01-15T00:41:42;7.20;99.90
46117;DHT22;32591;48.102;11.772;2023-01-15T00:44:09;7.20;99.90
46117;DHT22;32591;48.102;11.772;2023-01-15T00:46:35;7.20;99.90
46117;DHT22;32591;48.102;11.772;2023-01-15T00:49:02;7.20;99.90
46117;DHT22;32591;48.102;11.772;2023-01-15T00:51:29;7.30;99.90
46117;DHT22;32591;48.102;11.772;2023-01-15T00:53:57;7.30;99.90
46117;DHT22;32591;48.102;11.772;2023-01-15T00:56:24;7.30;99.90
46117;DHT22;32591;48.102;11.772;2023-01-15T00:58:52;7.40;99.90
46117;DHT22;32591;48.102;11.772;2023-01-15T01:01:19;7.40;99.80
46117;DHT22;32591;48.102;11.772;2023-01-15T01:03:46;7.30;99.60
46117;DHT22;32591;48.102;11.772;2023-01-15T01:06:13;7.30;99.50
46117;DHT22;32591;48.102;11.772;2023-01-15T01:08:41;7.40;99.90
46117;DHT22;32591;48.102;11.772;2023-01-15T01:11:08;7.40;99.90
46117;DHT22;32591;48.102;11.772;2023-01-15T01:13:36;7.40;99.60
46117;DHT22;32591;48.102;11.772;2023-01-15T01:16:14;7.40;99.90
46117;DHT22;32591;48.102;11.772;2023-01-15T01:18:46;7.50;99.90
46117;DHT22;32591;48.102;11.772;2023-01-15T01:21:13;7.50;99.90
46117;DHT22;32591;48.102;11.772;2023-01-15T01:23:40;7.50;99.90
46117;DHT22;32591;48.102;11.772;2023-01-15T01:26:07;7.50;99.90
46117;DHT22;32591;48.102;11.772;2023-01-15T01:28:34;7.50;99.90
46117;DHT22;32591;48.102;11.772;2023-01-15T01:31:04;7.50;99.90
46117;DHT22;32591;48.102;11.772;2023-01-15T01:33:31;7.50;99.90
46117;DHT22;32591;48.102;11.772;2023-01-15T01:35:58;7.50;99.90
46117;DHT22;32591;48.102;11.772;2023-01-15T01:38:25;7.50;99.90
46117;DHT22;32591;48.102;11.772;2023-01-15T01:40:51;7.50;99.90
46117;DHT22;32591;48.102;11.772;2023-01-15T01:43:19;7.60;99.90
46117;DHT22;32591;48.102;11.772;2023-01-15T01:45:47;7.60;99.90
46117;DHT22;32591;48.102;11.772;2023-01-15T01:48:15;7.60;99.90
46117;DHT22;32591;48.102;11.772;2023-01-15T01:50:44;7.50;99.90
46117;DHT22;32591;48.102;11.772;2023-01-15T01:53:13;7.50;99.90
46117;DHT22;32591;48.102;11.772;2023-01-15T01:55:43;7.40;99.90
46117;DHT22;32591;48.102;11.772;2023-01-15T01:58:10;7.30;99.90
46117;DHT22;32591;48.102;11.772;2023-01-15T02:00:38;7.20;99.90
46117;DHT22;32591;48.102;11.772;2023-01-15T02:03:06;7.10;99.90
46117;DHT22;32591;48.102;11.772;2023-01-15T02:05:36;7.00;99.90
46117;DHT22;32591;48.102;11.772;2023-01-15T02:08:04;6.90;99.90
46117;DHT22;32591;48.102;11.772;2023-01-15T02:10:32;6.90;99.90
46117;DHT22;32591;48.102;11.772;2023-01-15T02:12:59;6.80;99.90
46117;DHT22;32591;48.102;11.772;2023-01-15T02:15:30;6.70;99.90
46117;DHT22;32591;48.102;11.772;2023-01-15T02:18:02;6.70;99.90
46117;DHT22;32591;48.102;11.772;2023-01-15T02:20:34;6.60;99.90
46117;DHT22;32591;48.102;11.772;2023-01-15T02:26:01;6.60;99.90
46117;DHT22;32591;48.102;11.772;2023-01-15T02:28:35;6.70;99.90
46117;DHT22;32591;48.102;11.772;2023-01-15T02:31:04;6.80;99.90
46117;DHT22;32591;48.102;11.772;2023-01-15T02:33:35;6.80;99.90
46117;DHT22;32591;48.102;11.772;2023-01-15T02:36:04;6.90;99.90
46117;DHT22;32591;48.102;11.772;2023-01-15T02:38:34;6.90;99.90
46117;DHT22;32591;48.102;11.772;2023-01-15T02:41:03;6.90;99.90
46117;DHT22;32591;48.102;11.772;2023-01-15T02:43:33;6.90;99.90
46117;DHT22;32591;48.102;11.772;2023-01-15T02:46:02;7.10;99.90
46117;DHT22;32591;48.102;11.772;2023-01-15T02:48:31;6.80;99.90
46117;DHT22;32591;48.102;11.772;2023-01-15T02:51:00;6.80;99.90
46117;DHT22;32591;48.102;11.772;2023-01-15T02:53:32;6.90;99.90
46117;DHT22;32591;48.102;11.772;2023-01-15T02:56:01;6.90;99.90
46117;DHT22;32591;48.102;11.772;2023-01-15T02:58:30;7.00;99.90
46117;DHT22;32591;48.102;11.772;2023-01-15T03:01:00;7.00;99.90
46117;DHT22;32591;48.102;11.772;2023-01-15T03:03:32;7.00;99.90
46117;DHT22;32591;48.102;11.772;2023-01-15T03:06:03;7.10;99.90
46117;DHT22;32591;48.102;11.772;2023-01-15T03:08:31;7.10;99.90
46117;DHT22;32591;48.102;11.772;2023-01-15T03:11:00;7.10;99.90
46117;DHT22;32591;48.102;11.772;2023-01-15T03:13:33;7.10;99.90
46117;DHT22;32591;48.102;11.772;2023-01-15T03:16:10;7.10;99.90
46117;DHT22;32591;48.102;11.772;2023-01-15T03:18:59;7.20;99.90
46117;DHT22;32591;48.102;11.772;2023-01-15T03:21:31;7.20;99.90
46117;DHT22;32591;48.102;11.772;2023-01-15T03:24:05;7.20;99.90
46117;DHT22;32591;48.102;11.772;2023-01-15T03:26:33;7.30;99.90
46117;DHT22;32591;48.102;11.772;2023-01-15T03:29:00;7.30;99.90
46117;DHT22;32591;48.102;11.772;2023-01-15T03:31:31;7.30;99.90
46117;DHT22;32591;48.102;11.772;2023-01-15T03:33:58;7.30;99.90
46117;DHT22;32591;48.102;11.772;2023-01-15T03:36:25;7.30;99.90
46117;DHT22;32591;48.102;11.772;2023-01-15T03:38:52;7.20;99.90
46117;DHT22;32591;48.102;11.772;2023-01-15T03:41:19;7.20;99.90
46117;DHT22;32591;48.102;11.772;2023-01-15T03:43:54;7.20;99.90
46117;DHT22;32591;48.102;11.772;2023-01-15T03:46:30;7.30;99.90
46117;DHT22;32591;48.102;11.772;2023-01-15T03:49:09;7.20;99.90
46117;DHT22;32591;48.102;11.772;2023-01-15T03:51:42;7.30;99.90
46117;DHT22;32591;48.102;11.772;2023-01-15T03:54:14;7.30;99.90
46117;DHT22;32591;48.102;11.772;2023-01-15T03:56:47;7.20;99.90
46117;DHT22;32591;48.102;11.772;2023-01-15T03:59:20;7.20;99.90
46117;DHT22;32591;48.102;11.772;2023-01-15T04:01:50;7.20;99.90
46117;DHT22;32591;48.102;11.772;2023-01-15T04:04:18;7.20;99.90
46117;DHT22;32591;48.102;11.772;2023-01-15T04:06:45;7.20;99.90
46117;DHT22;32591;48.102;11.772;2023-01-15T04:09:12;7.20;99.90
46117;DHT22;32591;48.102;11.772;2023-01-15T04:11:40;7.20;99.90
46117;DHT22;32591;48.102;11.772;2023-01-15T04:14:08;7.20;99.90
46117;DHT22;32591;48.102;11.772;2023-01-15T04:16:37;7.20;99.90
46117;DHT22;32591;48.102;11.772;2023-01-15T04:19:05;7.20;99.90
46117;DHT22;32591;48.102;11.772;2023-01-15T04:21:32;7.20;99.90
46117;DHT22;32591;48.102;11.772;2023-01-15T04:23:59;7.20;99.90
46117;DHT22;32591;48.102;11.772;2023-01-15T04:26:26;7.30;99.90
46117;DHT22;32591;48.102;11.772;2023-01-15T04:28:53;7.20;99.90
46117;DHT22;32591;48.102;11.772;2023-01-15T04:31:20;7.30;99.90
46117;DHT22;32591;48.102;11.772;2023-01-15T04:33:46;7.20;99.90
46117;DHT22;32591;48.102;11.772;2023-01-15T04:36:14;7.20;99.90
46117;DHT22;32591;48.102;11.772;2023-01-15T04:38:41;7.20;99.90
46117;DHT22;32591;48.102;11.772;2023-01-15T04:41:08;7.20;99.90
46117;DHT22;32591;48.102;11.772;2023-01-15T04:43:53;7.30;99.90
46117;DHT22;32591;48.102;11.772;2023-01-15T04:46:32;7.30;99.90
46117;DHT22;32591;48.102;11.772;2023-01-15T04:48:59;7.40;99.90
46117;DHT22;32591;48.102;11.772;2023-01-15T04:51:27;7.50;99.90
46117;DHT22;32591;48.102;11.772;2023-01-15T04:53:54;7.40;99.90
46117;DHT22;32591;48.102;11.772;2023-01-15T04:56:21;7.40;99.90
46117;DHT22;32591;48.102;11.772;2023-01-15T04:58:48;7.50;99.90
46117;DHT22;32591;48.102;11.772;2023-01-15T05:01:16;7.50;99.90
46117;DHT22;32591;48.102;11.772;2023-01-15T05:03:43;7.50;99.90
46117;DHT22;32591;48.102;11.772;2023-01-15T05:06:10;7.50;99.90
46117;DHT22;32591;48.102;11.772;2023-01-15T05:08:40;7.50;99.90
46117;DHT22;32591;48.102;11.772;2023-01-15T05:11:06;7.50;99.90
46117;DHT22;32591;48.102;11.772;2023-01-15T05:13:33;7.50;99.90
46117;DHT22;32591;48.102;11.772;2023-01-15T05:16:10;7.50;99.90
46117;DHT22;32591;48.102;11.772;2023-01-15T05:18:38;7.50;99.90
46117;DHT22;32591;48.102;11.772;2023-01-15T05:21:06;7.50;99.90
46117;DHT22;32591;48.102;11.772;2023-01-15T05:23:33;7.50;99.90
46117;DHT22;32591;48.102;11.772;2023-01-15T05:26:03;7.40;99.90
46117;DHT22;32591;48.102;11.772;2023-01-15T05:28:30;7.50;99.90
46117;DHT22;32591;48.102;11.772;2023-01-15T05:30:57;7.50;99.90
46117;DHT22;32591;48.102;11.772;2023-01-15T05:33:24;7.50;99.90
46117;DHT22;32591;48.102;11.772;2023-01-15T05:35:50;7.50;99.90
46117;DHT22;32591;48.102;11.772;2023-01-15T05:38:17;7.40;99.90
46117;DHT22;32591;48.102;11.772;2023-01-15T05:40:44;7.40;99.90
46117;DHT22;32591;48.102;11.772;2023-01-15T05:43:12;7.50;99.90
46117;DHT22;32591;48.102;11.772;2023-01-15T05:45:39;7.50;99.90
46117;DHT22;32591;48.102;11.772;2023-01-15T05:48:06;7.40;99.90
46117;DHT22;32591;48.102;11.772;2023-01-15T05:50:33;7.50;99.90
46117;DHT22;32591;48.102;11.772;2023-01-15T05:53:00;7.50;99.90
46117;DHT22;32591;48.102;11.772;2023-01-15T05:55:27;7.60;99.90
46117;DHT22;32591;48.102;11.772;2023-01-15T05:57:54;7.60;99.90
46117;DHT22;32591;48.102;11.772;2023-01-15T06:00:24;7.70;99.90
46117;DHT22;32591;48.102;11.772;2023-01-15T06:02:51;7.70;99.90
46117;DHT22;32591;48.102;11.772;2023-01-15T06:05:18;7.80;99.90
46117;DHT22;32591;48.102;11.772;2023-01-15T06:07:46;7.70;99.90
46117;DHT22;32591;48.102;11.772;2023-01-15T06:10:14;7.80;99.90
46117;DHT22;32591;48.102;11.772;2023-01-15T06:12:41;7.80;99.90
46117;DHT22;32591;48.102;11.772;2023-01-15T06:15:09;7.80;99.90
46117;DHT22;32591;48.102;11.772;2023-01-15T06:17:38;7.80;99.90
46117;DHT22;32591;48.102;11.772;2023-01-15T06:20:05;7.80;99.90
46117;DHT22;32591;48.102;11.772;2023-01-15T06:22:33;7.90;99.90
46117;DHT22;32591;48.102;11.772;2023-01-15T06:25:00;7.90;99.90
46117;DHT22;32591;48.102;11.772;2023-01-15T06:27:26;7.90;99.90
46117;DHT22;32591;48.102;11.772;2023-01-15T06:29:53;7.80;99.90
46117;DHT22;32591;48.102;11.772;2023-01-15T06:32:23;7.80;99.90
46117;DHT22;32591;48.102;11.772;2023-01-15T06:34:52;7.70;99.90
46117;DHT22;32591;48.102;11.772;2023-01-15T06:37:19;7.80;99.90
46117;DHT22;32591;48.102;11.772;2023-01-15T06:39:45;7.80;99.90
46117;DHT22;32591;48.102;11.772;2023-01-15T06:42:12;7.80;99.90
46117;DHT22;32591;48.102;11.772;2023-01-15T06:44:57;7.90;99.90
46117;DHT22;32591;48.102;11.772;2023-01-15T06:47:41;8.00;99.90
46117;DHT22;32591;48.102;11.772;2023-01-15T06:50:10;7.90;99.90
46117;DHT22;32591;48.102;11.772;2023-01-15T06:52:37;8.00;99.90
46117;DHT22;32591;48.102;11.772;2023-01-15T06:55:04;8.00;99.90
46117;DHT22;32591;48.102;11.772;2023-01-15T06:57:31;8.10;99.90
46117;DHT22;32591;48.102;11.772;2023-01-15T06:59:58;8.10;99.90
46117;DHT22;32591;48.102;11.772;2023-01-15T07:02:25;8.10;99.90
46117;DHT22;32591;48.102;11.772;2023-01-15T07:04:52;8.10;99.90
46117;DHT22;32591;48.102;11.772;2023-01-15T07:07:20;8.20;99.90
46117;DHT22;32591;48.102;11.772;2023-01-15T07:09:47;8.20;99.90
46117;DHT22;32591;48.102;11.772;2023-01-15T07:12:14;8.20;99.90
46117;DHT22;32591;48.102;11.772;2023-01-15T07:14:40;8.20;99.90
46117;DHT22;32591;48.102;11.772;2023-01-15T07:17:08;8.20;99.90
46117;DHT22;32591;48.102;11.772;2023-01-15T07:19:35;8.20;99.90
46117;DHT22;32591;48.102;11.772;2023-01-15T07:22:02;8.30;99.90
46117;DHT22;32591;48.102;11.772;2023-01-15T07:24:30;8.30;99.90
46117;DHT22;32591;48.102;11.772;2023-01-15T07:26:57;8.20;99.90
46117;DHT22;32591;48.102;11.772;2023-01-15T07:29:24;8.30;99.90
46117;DHT22;32591;48.102;11.772;2023-01-15T07:31:51;8.30;99.90
46117;DHT22;32591;48.102;11.772;2023-01-15T07:34:18;8.30;99.90
46117;DHT22;32591;48.102;11.772;2023-01-15T07:36:45;8.40;99.90
46117;DHT22;32591;48.102;11.772;2023-01-15T07:39:12;8.40;99.90
46117;DHT22;32591;48.102;11.772;2023-01-15T07:41:40;8.50;99.90
46117;DHT22;32591;48.102;11.772;2023-01-15T07:44:24;8.40;99.90
46117;DHT22;32591;48.102;11.772;2023-01-15T07:47:13;8.60;99.90
46117;DHT22;32591;48.102;11.772;2023-01-15T07:50:00;8.50;99.90
46117;DHT22;32591;48.102;11.772;2023-01-15T07:52:27;8.60;99.90
46117;DHT22;32591;48.102;11.772;2023-01-15T07:54:54;8.60;99.90
46117;DHT22;32591;48.102;11.772;2023-01-15T07:57:22;8.70;99.90
46117;DHT22;32591;48.102;11.772;2023-01-15T07:59:49;8.70;99.90
46117;DHT22;32591;48.102;11.772;2023-01-15T08:02:16;8.70;99.90
46117;DHT22;32591;48.102;11.772;2023-01-15T08:04:43;8.90;99.90
46117;DHT22;32591;48.102;11.772;2023-01-15T08:07:12;8.90;99.90
46117;DHT22;32591;48.102;11.772;2023-01-15T08:09:39;8.90;99.90
46117;DHT22;32591;48.102;11.772;2023-01-15T08:12:06;8.90;99.90
46117;DHT22;32591;48.102;11.772;2023-01-15T08:14:52;8.90;99.90
46117;DHT22;32591;48.102;11.772;2023-01-15T08:17:37;8.90;99.90
46117;DHT22;32591;48.102;11.772;2023-01-15T08:20:05;9.00;99.90
46117;DHT22;32591;48.102;11.772;2023-01-15T08:22:34;8.90;99.90
46117;DHT22;32591;48.102;11.772;2023-01-15T08:25:03;9.00;99.90
46117;DHT22;32591;48.102;11.772;2023-01-15T08:27:30;9.00;99.90
46117;DHT22;32591;48.102;11.772;2023-01-15T08:29:58;9.00;99.90
46117;DHT22;32591;48.102;11.772;2023-01-15T08:32:25;9.00;99.90
46117;DHT22;32591;48.102;11.772;2023-01-15T08:34:52;9.00;99.90
46117;DHT22;32591;48.102;11.772;2023-01-15T08:37:18;9.00;99.90
46117;DHT22;32591;48.102;11.772;2023-01-15T08:39:45;9.00;99.90
46117;DHT22;32591;48.102;11.772;2023-01-15T08:42:12;9.10;99.90
46117;DHT22;32591;48.102;11.772;2023-01-15T08:44:39;9.10;99.90
46117;DHT22;32591;48.102;11.772;2023-01-15T08:47:07;9.20;99.90
46117;DHT22;32591;48.102;11.772;2023-01-15T08:49:34;9.30;99.90
46117;DHT22;32591;48.102;11.772;2023-01-15T08:52:00;9.30;99.90
46117;DHT22;32591;48.102;11.772;2023-01-15T08:54:27;9.50;99.90
46117;DHT22;32591;48.102;11.772;2023-01-15T08:56:54;9.40;99.90
46117;DHT22;32591;48.102;11.772;2023-01-15T08:59:21;9.50;99.90
46117;DHT22;32591;48.102;11.772;2023-01-15T09:01:48;9.50;99.90
46117;DHT22;32591;48.102;11.772;2023-01-15T09:04:17;9.50;99.90
46117;DHT22;32591;48.102;11.772;2023-01-15T09:06:45;9.60;99.90
46117;DHT22;32591;48.102;11.772;2023-01-15T09:09:13;9.70;99.90
46117;DHT22;32591;48.102;11.772;2023-01-15T09:11:40;9.70;99.90
46117;DHT22;32591;48.102;11.772;2023-01-15T09:14:08;9.80;99.90
46117;DHT22;32591;48.102;11.772;2023-01-15T09:16:37;9.80;99.90
46117;DHT22;32591;48.102;11.772;2023-01-15T09:19:05;9.80;99.90
46117;DHT22;32591;48.102;11.772;2023-01-15T09:21:33;9.90;99.90
46117;DHT22;32591;48.102;11.772;2023-01-15T09:24:00;10.00;99.90
46117;DHT22;32591;48.102;11.772;2023-01-15T09:26:28;10.20;99.90
46117;DHT22;32591;48.102;11.772;2023-01-15T09:28:56;10.20;99.90
46117;DHT22;32591;48.102;11.772;2023-01-15T09:31:23;10.30;99.90
46117;DHT22;32591;48.102;11.772;2023-01-15T09:33:50;10.30;99.90
46117;DHT22;32591;48.102;11.772;2023-01-15T09:36:18;10.30;99.90
46117;DHT22;32591;48.102;11.772;2023-01-15T09:38:48;10.40;99.90
46117;DHT22;32591;48.102;11.772;2023-01-15T09:41:15;10.40;99.90
46117;DHT22;32591;48.102;11.772;2023-01-15T09:43:58;10.40;99.90
46117;DHT22;32591;48.102;11.772;2023-01-15T09:46:33;10.40;99.90
46117;DHT22;32591;48.102;11.772;2023-01-15T09:49:05;10.50;99.90
46117;DHT22;32591;48.102;11.772;2023-01-15T09:51:39;10.60;99.90
46117;DHT22;32591;48.102;11.772;2023-01-15T09:54:19;10.70;99.90
46117;DHT22;32591;48.102;11.772;2023-01-15T09:56:52;10.80;99.90
46117;DHT22;32591;48.102;11.772;2023-01-15T09:59:21;10.90;99.90
46117;DHT22;32591;48.102;11.772;2023-01-15T10:01:53;11.00;99.90
46117;DHT22;32591;48.102;11.772;2023-01-15T10:04:26;11.00;99.90
46117;DHT22;32591;48.102;11.772;2023-01-15T10:06:59;11.00;99.90
46117;DHT22;32591;48.102;11.772;2023-01-15T10:09:32;11.10;99.90
46117;DHT22;32591;48.102;11.772;2023-01-15T10:12:03;11.20;99.90
46117;DHT22;32591;48.102;11.772;2023-01-15T10:14:53;11.30;99.90
46117;DHT22;32591;48.102;11.772;2023-01-15T10:17:27;11.40;99.90
46117;DHT22;32591;48.102;11.772;2023-01-15T10:19:54;11.50;99.90
46117;DHT22;32591;48.102;11.772;2023-01-15T10:22:28;11.70;99.90
46117;DHT22;32591;48.102;11.772;2023-01-15T10:25:01;12.00;99.90
46117;DHT22;32591;48.102;11.772;2023-01-15T10:27:30;12.00;99.90
46117;DHT22;32591;48.102;11.772;2023-01-15T10:29:59;10.80;99.90
46117;DHT22;32591;48.102;11.772;2023-01-15T10:32:34;9.70;99.90
46117;DHT22;32591;48.102;11.772;2023-01-15T10:35:06;8.90;99.90
46117;DHT22;32591;48.102;11.772;2023-01-15T10:37:45;8.70;99.90
46117;DHT22;32591;48.102;11.772;2023-01-15T10:43:00;8.20;99.90
46117;DHT22;32591;48.102;11.772;2023-01-15T10:45:29;8.00;99.90
46117;DHT22;32591;48.102;11.772;2023-01-15T10:47:58;7.90;99.90
46117;DHT22;32591;48.102;11.772;2023-01-15T10:50:30;7.70;99.90
46117;DHT22;32591;48.102;11.772;2023-01-15T10:53:01;7.60;99.90
46117;DHT22;32591;48.102;11.772;2023-01-15T10:55:33;7.50;99.90
46117;DHT22;32591;48.102;11.772;2023-01-15T10:58:02;7.40;99.90
46117;DHT22;32591;48.102;11.772;2023-01-15T11:00:35;7.40;99.90
46117;DHT22;32591;48.102;11.772;2023-01-15T11:03:02;7.30;99.90
46117;DHT22;32591;48.102;11.772;2023-01-15T11:05:32;7.20;99.90
46117;DHT22;32591;48.102;11.772;2023-01-15T11:08:00;7.20;99.90
46117;DHT22;32591;48.102;11.772;2023-01-15T11:10:28;7.20;99.90
46117;DHT22;32591;48.102;11.772;2023-01-15T11:12:57;7.10;99.90
46117;DHT22;32591;48.102;11.772;2023-01-15T11:15:43;7.10;99.90
46117;DHT22;32591;48.102;11.772;2023-01-15T11:18:30;7.00;99.90
46117;DHT22;32591;48.102;11.772;2023-01-15T11:21:17;7.00;99.90
46117;DHT22;32591;48.102;11.772;2023-01-15T11:23:45;6.90;99.90
46117;DHT22;32591;48.102;11.772;2023-01-15T11:26:15;6.80;99.90
46117;DHT22;32591;48.102;11.772;2023-01-15T11:28:45;6.80;99.90
46117;DHT22;32591;48.102;11.772;2023-01-15T11:31:12;6.90;99.90
46117;DHT22;32591;48.102;11.772;2023-01-15T11:33:42;6.70;99.90
46117;DHT22;32591;48.102;11.772;2023-01-15T11:36:18;6.70;99.90
46117;DHT22;32591;48.102;11.772;2023-01-15T11:38:46;6.60;99.90
46117;DHT22;32591;48.102;11.772;2023-01-15T11:41:21;6.40;99.90
46117;DHT22;32591;48.102;11.772;2023-01-15T11:43:54;6.50;99.90
46117;DHT22;32591;48.102;11.772;2023-01-15T11:46:39;6.40;99.90
46117;DHT22;32591;48.102;11.772;2023-01-15T11:49:23;6.40;99.90
46117;DHT22;32591;48.102;11.772;2023-01-15T11:52:09;6.30;99.90
46117;DHT22;32591;48.102;11.772;2023-01-15T11:54:39;6.30;99.90
46117;DHT22;32591;48.102;11.772;2023-01-15T11:57:08;6.20;99.90
46117;DHT22;32591;48.102;11.772;2023-01-15T11:59:37;6.10;99.90
46117;DHT22;32591;48.102;11.772;2023-01-15T12:02:05;5.90;99.90
46117;DHT22;32591;48.102;11.772;2023-01-15T12:04:43;5.90;99.90
46117;DHT22;32591;48.102;11.772;2023-01-15T12:07:14;5.80;99.90
46117;DHT22;32591;48.102;11.772;2023-01-15T12:09:46;5.70;99.90
46117;DHT22;32591;48.102;11.772;2023-01-15T12:12:27;5.60;99.90
46117;DHT22;32591;48.102;11.772;2023-01-15T12:15:06;5.60;99.90
46117;DHT22;32591;48.102;11.772;2023-01-15T12:17:51;5.60;99.90
46117;DHT22;32591;48.102;11.772;2023-01-15T12:20:23;5.60;99.90
46117;DHT22;32591;48.102;11.772;2023-01-15T12:22:54;5.50;99.90
46117;DHT22;32591;48.102;11.772;2023-01-15T12:25:31;5.40;99.90
46117;DHT22;32591;48.102;11.772;2023-01-15T12:28:03;5.30;99.90
46117;DHT22;32591;48.102;11.772;2023-01-15T12:30:37;5.30;99.90
46117;DHT22;32591;48.102;11.772;2023-01-15T12:33:10;5.30;99.90
46117;DHT22;32591;48.102;11.772;2023-01-15T12:35:43;5.30;99.90
46117;DHT22;32591;48.102;11.772;2023-01-15T12:38:15;5.20;99.90
46117;DHT22;32591;48.102;11.772;2023-01-15T12:40:47;5.20;99.90
46117;DHT22;32591;48.102;11.772;2023-01-15T12:43:18;5.20;99.90
46117;DHT22;32591;48.102;11.772;2023-01-15T12:46:08;5.10;99.90
46117;DHT22;32591;48.102;11.772;2023-01-15T12:48:38;5.10;99.90
46117;DHT22;32591;48.102;11.772;2023-01-15T12:51:09;5.00;99.90
46117;DHT22;32591;48.102;11.772;2023-01-15T12:53:40;5.10;99.90
46117;DHT22;32591;48.102;11.772;2023-01-15T12:56:11;5.10;99.90
46117;DHT22;32591;48.102;11.772;2023-01-15T12:58:42;5.00;99.90
46117;DHT22;32591;48.102;11.772;2023-01-15T13:01:15;4.90;99.90
46117;DHT22;32591;48.102;11.772;2023-01-15T13:03:47;4.90;99.90
46117;DHT22;32591;48.102;11.772;2023-01-15T13:06:17;4.90;99.90
46117;DHT22;32591;48.102;11.772;2023-01-15T13:08:48;5.00;99.90
46117;DHT22;32591;48.102;11.772;2023-01-15T13:11:19;5.10;99.90
46117;DHT22;32591;48.102;11.772;2023-01-15T13:13:45;5.00;99.90
46117;DHT22;32591;48.102;11.772;2023-01-15T13:16:25;5.10;99.90
46117;DHT22;32591;48.102;11.772;2023-01-15T13:18:58;5.10;99.90
46117;DHT22;32591;48.102;11.772;2023-01-15T13:21:34;5.10;99.90
46117;DHT22;32591;48.102;11.772;2023-01-15T13:24:06;5.10;99.90
46117;DHT22;32591;48.102;11.772;2023-01-15T13:29:39;5.10;99.90
46117;DHT22;32591;48.102;11.772;2023-01-15T13:32:12;5.10;99.90
46117;DHT22;32591;48.102;11.772;2023-01-15T13:34:43;5.20;99.90
46117;DHT22;32591;48.102;11.772;2023-01-15T13:37:15;5.20;99.90
46117;DHT22;32591;48.102;11.772;2023-01-15T13:39:46;5.20;99.90
46117;DHT22;32591;48.102;11.772;2023-01-15T13:42:15;5.20;99.90
46117;DHT22;32591;48.102;11.772;2023-01-15T13:45:07;5.20;99.90
46117;DHT22;32591;48.102;11.772;2023-01-15T13:47:52;5.20;99.90
46117;DHT22;32591;48.102;11.772;2023-01-15T13:50:23;5.10;99.90
46117;DHT22;32591;48.102;11.772;2023-01-15T13:52:58;5.10;99.90
46117;DHT22;32591;48.102;11.772;2023-01-15T13:55:28;5.10;99.90
46117;DHT22;32591;48.102;11.772;2023-01-15T13:57:56;5.10;99.90
46117;DHT22;32591;48.102;11.772;2023-01-15T14:00:27;5.10;99.90
46117;DHT22;32591;48.102;11.772;2023-01-15T14:02:58;5.10;99.90
46117;DHT22;32591;48.102;11.772;2023-01-15T14:05:27;5.00;99.90
46117;DHT22;32591;48.102;11.772;2023-01-15T14:07:56;4.90;99.90
46117;DHT22;32591;48.102;11.772;2023-01-15T14:13:14;4.90;99.90
46117;DHT22;32591;48.102;11.772;2023-01-15T14:16:10;4.90;99.90
46117;DHT22;32591;48.102;11.772;2023-01-15T14:18:55;4.90;99.90
46117;DHT22;32591;48.102;11.772;2023-01-15T14:21:30;4.90;99.90
46117;DHT22;32591;48.102;11.772;2023-01-15T14:24:07;4.90;99.90
46117;DHT22;32591;48.102;11.772;2023-01-15T14:26:42;4.80;99.90
46117;DHT22;32591;48.102;11.772;2023-01-15T14:29:25;4.90;99.90
46117;DHT22;32591;48.102;11.772;2023-01-15T14:32:16;4.80;99.90
46117;DHT22;32591;48.102;11.772;2023-01-15T14:34:53;4.80;99.90
46117;DHT22;32591;48.102;11.772;2023-01-15T14:37:22;4.80;99.90
46117;DHT22;32591;48.102;11.772;2023-01-15T14:39:50;4.70;99.90
46117;DHT22;32591;48.102;11.772;2023-01-15T14:42:22;4.70;99.90
46117;DHT22;32591;48.102;11.772;2023-01-15T14:45:15;4.70;99.90
46117;DHT22;32591;48.102;11.772;2023-01-15T14:47:44;4.60;99.90
46117;DHT22;32591;48.102;11.772;2023-01-15T14:50:33;4.50;99.90
46117;DHT22;32591;48.102;11.772;2023-01-15T14:53:04;4.50;99.90
46117;DHT22;32591;48.102;11.772;2023-01-15T14:55:40;4.40;99.90
46117;DHT22;32591;48.102;11.772;2023-01-15T14:58:13;4.30;99.90
46117;DHT22;32591;48.102;11.772;2023-01-15T15:00:44;4.20;99.90
46117;DHT22;32591;48.102;11.772;2023-01-15T15:03:12;4.10;99.90
46117;DHT22;32591;48.102;11.772;2023-01-15T15:05:43;4.10;99.90
46117;DHT22;32591;48.102;11.772;2023-01-15T15:08:12;4.10;99.90
46117;DHT22;32591;48.102;11.772;2023-01-15T15:10:40;4.10;99.90
46117;DHT22;32591;48.102;11.772;2023-01-15T15:13:12;3.90;99.90
46117;DHT22;32591;48.102;11.772;2023-01-15T15:15:42;3.80;99.90
46117;DHT22;32591;48.102;11.772;2023-01-15T15:18:19;3.80;99.90
46117;DHT22;32591;48.102;11.772;2023-01-15T15:20:52;3.70;99.90
46117;DHT22;32591;48.102;11.772;2023-01-15T15:23:23;3.60;99.90
46117;DHT22;32591;48.102;11.772;2023-01-15T15:25:54;3.60;99.90
46117;DHT22;32591;48.102;11.772;2023-01-15T15:28:21;3.50;99.90
46117;DHT22;32591;48.102;11.772;2023-01-15T15:30:48;3.50;99.90
46117;DHT22;32591;48.102;11.772;2023-01-15T15:33:16;3.40;99.90
46117;DHT22;32591;48.102;11.772;2023-01-15T15:35:44;3.40;99.90
46117;DHT22;32591;48.102;11.772;2023-01-15T15:38:14;3.30;99.90
46117;DHT22;32591;48.102;11.772;2023-01-15T15:40:44;3.40;99.90
46117;DHT22;32591;48.102;11.772;2023-01-15T15:43:12;3.40;99.90
46117;DHT22;32591;48.102;11.772;2023-01-15T15:45:58;3.40;99.90
46117;DHT22;32591;48.102;11.772;2023-01-15T15:48:44;3.50;99.90
46117;DHT22;32591;48.102;11.772;2023-01-15T15:51:30;3.50;99.90
46117;DHT22;32591;48.102;11.772;2023-01-15T15:54:03;3.50;99.90
46117;DHT22;32591;48.102;11.772;2023-01-15T15:56:31;3.50;99.90
46117;DHT22;32591;48.102;11.772;2023-01-15T15:58:58;3.50;99.90
46117;DHT22;32591;48.102;11.772;2023-01-15T16:01:25;3.50;99.90
46117;DHT22;32591;48.102;11.772;2023-01-15T16:03:52;3.50;99.90